sensor_id;sensor_type;location;lat;lon;timestamp;P1;durP1;ratioP1;P2;durP2;ratioP2
4808;SDS011;2418;49.930;8.606;2023-04-07T00:00:57;28.88;;;19.25;;
4808;SDS011;2418;49.930;8.606;2023-04-07T00:03:23;27.90;;;19.25;;
4808;SDS011;2418;49.930;8.606;2023-04-07T00:05:49;26.35;;;18.70;;
4808;SDS011;2418;49.930;8.606;2023-04-07T00:08:16;30.42;;;18.50;;
4808;SDS011;2418;49.930;8.606;2023-04-07T00:10:42;23.83;;;17.63;;
4808;SDS011;2418;49.930;8.606;2023-04-07T00:13:08;25.98;;;18.10;;
4808;SDS011;2418;49.930;8.606;2023-04-07T00:15:34;28.35;;;17.58;;
4808;SDS011;2418;49.930;8.606;2023-04-07T00:18:00;27.60;;;18.03;;
4808;SDS011;2418;49.930;8.606;2023-04-07T00:20:26;25.75;;;17.73;;
4808;SDS011;2418;49.930;8.606;2023-04-07T00:22:52;23.17;;;18.27;;
4808;SDS011;2418;49.930;8.606;2023-04-07T00:25:19;29.83;;;19.15;;
4808;SDS011;2418;49.930;8.606;2023-04-07T00:27:45;25.75;;;18.25;;
4808;SDS011;2418;49.930;8.606;2023-04-07T00:30:11;23.02;;;17.98;;
4808;SDS011;2418;49.930;8.606;2023-04-07T00:32:39;24.33;;;16.52;;
4808;SDS011;2418;49.930;8.606;2023-04-07T00:35:05;25.05;;;16.83;;
4808;SDS011;2418;49.930;8.606;2023-04-07T00:37:31;21.13;;;16.85;;
4808;SDS011;2418;49.930;8.606;2023-04-07T00:39:57;25.93;;;16.80;;
4808;SDS011;2418;49.930;8.606;2023-04-07T00:42:23;31.58;;;17.48;;
4808;SDS011;2418;49.930;8.606;2023-04-07T00:44:49;23.00;;;16.80;;
4808;SDS011;2418;49.930;8.606;2023-04-07T00:47:15;20.50;;;16.75;;
4808;SDS011;2418;49.930;8.606;2023-04-07T00:49:41;21.20;;;16.00;;
4808;SDS011;2418;49.930;8.606;2023-04-07T00:52:08;24.57;;;16.57;;
4808;SDS011;2418;49.930;8.606;2023-04-07T00:54:35;23.08;;;17.38;;
4808;SDS011;2418;49.930;8.606;2023-04-07T00:57:01;21.05;;;15.48;;
4808;SDS011;2418;49.930;8.606;2023-04-07T00:59:27;22.75;;;15.80;;
4808;SDS011;2418;49.930;8.606;2023-04-07T01:02:07;21.10;;;15.80;;
4808;SDS011;2418;49.930;8.606;2023-04-07T01:07:07;22.00;;;15.37;;
4808;SDS011;2418;49.930;8.606;2023-04-07T01:09:40;21.80;;;15.05;;
4808;SDS011;2418;49.930;8.606;2023-04-07T01:14:46;21.83;;;15.20;;
4808;SDS011;2418;49.930;8.606;2023-04-07T01:17:15;21.17;;;14.80;;
4808;SDS011;2418;49.930;8.606;2023-04-07T01:19:42;20.77;;;15.48;;
4808;SDS011;2418;49.930;8.606;2023-04-07T01:22:16;22.10;;;15.40;;
4808;SDS011;2418;49.930;8.606;2023-04-07T01:27:48;24.90;;;14.60;;
4808;SDS011;2418;49.930;8.606;2023-04-07T01:30:30;21.20;;;15.20;;
4808;SDS011;2418;49.930;8.606;2023-04-07T01:32:57;21.27;;;15.30;;
4808;SDS011;2418;49.930;8.606;2023-04-07T01:35:24;22.10;;;14.95;;
4808;SDS011;2418;49.930;8.606;2023-04-07T01:37:51;18.13;;;14.65;;
4808;SDS011;2418;49.930;8.606;2023-04-07T01:40:17;21.67;;;15.10;;
4808;SDS011;2418;49.930;8.606;2023-04-07T01:42:44;20.03;;;15.47;;
4808;SDS011;2418;49.930;8.606;2023-04-07T01:45:10;23.55;;;15.95;;
4808;SDS011;2418;49.930;8.606;2023-04-07T01:47:37;21.10;;;15.98;;
4808;SDS011;2418;49.930;8.606;2023-04-07T01:50:04;20.95;;;15.57;;
4808;SDS011;2418;49.930;8.606;2023-04-07T01:52:31;19.38;;;15.15;;
4808;SDS011;2418;49.930;8.606;2023-04-07T01:54:58;21.23;;;16.23;;
4808;SDS011;2418;49.930;8.606;2023-04-07T01:57:24;26.70;;;18.42;;
4808;SDS011;2418;49.930;8.606;2023-04-07T01:59:51;24.83;;;17.92;;
4808;SDS011;2418;49.930;8.606;2023-04-07T02:02:18;26.92;;;19.52;;
4808;SDS011;2418;49.930;8.606;2023-04-07T02:04:48;32.55;;;20.30;;
4808;SDS011;2418;49.930;8.606;2023-04-07T02:07:21;29.63;;;20.40;;
4808;SDS011;2418;49.930;8.606;2023-04-07T02:09:49;34.50;;;20.80;;
4808;SDS011;2418;49.930;8.606;2023-04-07T02:12:16;33.95;;;21.40;;
4808;SDS011;2418;49.930;8.606;2023-04-07T02:14:42;33.13;;;20.95;;
4808;SDS011;2418;49.930;8.606;2023-04-07T02:17:08;31.40;;;20.90;;
4808;SDS011;2418;49.930;8.606;2023-04-07T02:19:35;31.35;;;21.58;;
4808;SDS011;2418;49.930;8.606;2023-04-07T02:22:02;32.58;;;22.15;;
4808;SDS011;2418;49.930;8.606;2023-04-07T02:24:28;33.67;;;21.45;;
4808;SDS011;2418;49.930;8.606;2023-04-07T02:26:54;42.75;;;22.65;;
4808;SDS011;2418;49.930;8.606;2023-04-07T02:29:21;37.13;;;21.85;;
4808;SDS011;2418;49.930;8.606;2023-04-07T02:31:47;35.00;;;22.55;;
4808;SDS011;2418;49.930;8.606;2023-04-07T02:34:13;35.50;;;23.20;;
4808;SDS011;2418;49.930;8.606;2023-04-07T02:36:39;35.88;;;21.70;;
4808;SDS011;2418;49.930;8.606;2023-04-07T02:39:06;34.03;;;22.23;;
4808;SDS011;2418;49.930;8.606;2023-04-07T02:41:34;35.40;;;21.58;;
4808;SDS011;2418;49.930;8.606;2023-04-07T02:44:01;31.85;;;22.20;;
4808;SDS011;2418;49.930;8.606;2023-04-07T02:46:26;33.35;;;22.25;;
4808;SDS011;2418;49.930;8.606;2023-04-07T02:48:52;39.10;;;22.83;;
4808;SDS011;2418;49.930;8.606;2023-04-07T02:51:18;37.90;;;22.90;;
4808;SDS011;2418;49.930;8.606;2023-04-07T02:53:44;41.33;;;24.10;;
4808;SDS011;2418;49.930;8.606;2023-04-07T02:56:10;36.15;;;21.60;;
4808;SDS011;2418;49.930;8.606;2023-04-07T02:58:36;34.73;;;21.80;;
4808;SDS011;2418;49.930;8.606;2023-04-07T03:01:02;45.03;;;22.60;;
4808;SDS011;2418;49.930;8.606;2023-04-07T03:03:29;35.40;;;21.90;;
4808;SDS011;2418;49.930;8.606;2023-04-07T03:05:55;32.13;;;21.25;;
4808;SDS011;2418;49.930;8.606;2023-04-07T03:08:21;34.20;;;21.33;;
4808;SDS011;2418;49.930;8.606;2023-04-07T03:10:47;30.80;;;21.90;;
4808;SDS011;2418;49.930;8.606;2023-04-07T03:13:13;32.40;;;22.25;;
4808;SDS011;2418;49.930;8.606;2023-04-07T03:15:43;33.22;;;22.10;;
4808;SDS011;2418;49.930;8.606;2023-04-07T03:18:09;40.30;;;21.90;;
4808;SDS011;2418;49.930;8.606;2023-04-07T03:20:36;29.60;;;20.58;;
4808;SDS011;2418;49.930;8.606;2023-04-07T03:23:02;33.10;;;21.13;;
4808;SDS011;2418;49.930;8.606;2023-04-07T03:25:28;35.80;;;22.33;;
4808;SDS011;2418;49.930;8.606;2023-04-07T03:27:54;34.28;;;21.25;;
4808;SDS011;2418;49.930;8.606;2023-04-07T03:30:20;32.00;;;20.87;;
4808;SDS011;2418;49.930;8.606;2023-04-07T03:32:46;36.10;;;21.85;;
4808;SDS011;2418;49.930;8.606;2023-04-07T03:35:12;31.05;;;20.67;;
4808;SDS011;2418;49.930;8.606;2023-04-07T03:37:38;32.83;;;21.38;;
4808;SDS011;2418;49.930;8.606;2023-04-07T03:40:04;34.73;;;22.20;;
4808;SDS011;2418;49.930;8.606;2023-04-07T03:42:30;34.92;;;20.52;;
4808;SDS011;2418;49.930;8.606;2023-04-07T03:44:56;37.17;;;20.75;;
4808;SDS011;2418;49.930;8.606;2023-04-07T03:47:22;34.38;;;20.98;;
4808;SDS011;2418;49.930;8.606;2023-04-07T03:49:48;32.72;;;20.15;;
4808;SDS011;2418;49.930;8.606;2023-04-07T03:52:14;32.25;;;19.95;;
4808;SDS011;2418;49.930;8.606;2023-04-07T03:54:40;35.95;;;21.80;;
4808;SDS011;2418;49.930;8.606;2023-04-07T03:57:06;29.85;;;19.70;;
4808;SDS011;2418;49.930;8.606;2023-04-07T03:59:32;31.40;;;20.35;;
4808;SDS011;2418;49.930;8.606;2023-04-07T04:01:58;35.47;;;20.65;;
4808;SDS011;2418;49.930;8.606;2023-04-07T04:04:24;28.83;;;20.30;;
4808;SDS011;2418;49.930;8.606;2023-04-07T04:06:50;30.10;;;20.57;;
4808;SDS011;2418;49.930;8.606;2023-04-07T04:09:16;31.85;;;21.05;;
4808;SDS011;2418;49.930;8.606;2023-04-07T04:11:42;29.92;;;19.60;;
4808;SDS011;2418;49.930;8.606;2023-04-07T04:14:08;30.17;;;19.45;;
4808;SDS011;2418;49.930;8.606;2023-04-07T04:16:35;29.85;;;20.33;;
4808;SDS011;2418;49.930;8.606;2023-04-07T04:19:01;32.17;;;20.00;;
4808;SDS011;2418;49.930;8.606;2023-04-07T04:21:27;29.88;;;19.35;;
4808;SDS011;2418;49.930;8.606;2023-04-07T04:23:52;32.70;;;20.30;;
4808;SDS011;2418;49.930;8.606;2023-04-07T04:26:18;28.10;;;19.80;;
4808;SDS011;2418;49.930;8.606;2023-04-07T04:28:49;31.90;;;19.43;;
4808;SDS011;2418;49.930;8.606;2023-04-07T04:31:15;29.75;;;19.35;;
4808;SDS011;2418;49.930;8.606;2023-04-07T04:33:41;27.80;;;20.08;;
4808;SDS011;2418;49.930;8.606;2023-04-07T04:36:07;30.58;;;20.38;;
4808;SDS011;2418;49.930;8.606;2023-04-07T04:38:33;33.72;;;20.90;;
4808;SDS011;2418;49.930;8.606;2023-04-07T04:40:59;30.50;;;20.38;;
4808;SDS011;2418;49.930;8.606;2023-04-07T04:43:25;32.17;;;21.08;;
4808;SDS011;2418;49.930;8.606;2023-04-07T04:45:51;25.85;;;19.42;;
4808;SDS011;2418;49.930;8.606;2023-04-07T04:48:17;26.90;;;19.15;;
4808;SDS011;2418;49.930;8.606;2023-04-07T04:50:43;28.83;;;19.67;;
4808;SDS011;2418;49.930;8.606;2023-04-07T04:53:09;29.33;;;20.33;;
4808;SDS011;2418;49.930;8.606;2023-04-07T04:55:43;30.92;;;20.02;;
4808;SDS011;2418;49.930;8.606;2023-04-07T04:58:17;30.08;;;20.23;;
4808;SDS011;2418;49.930;8.606;2023-04-07T05:00:43;30.33;;;19.95;;
4808;SDS011;2418;49.930;8.606;2023-04-07T05:03:09;29.15;;;19.98;;
4808;SDS011;2418;49.930;8.606;2023-04-07T05:05:35;33.10;;;20.60;;
4808;SDS011;2418;49.930;8.606;2023-04-07T05:08:01;33.00;;;20.97;;
4808;SDS011;2418;49.930;8.606;2023-04-07T05:10:27;31.60;;;20.40;;
4808;SDS011;2418;49.930;8.606;2023-04-07T05:12:52;27.67;;;19.77;;
4808;SDS011;2418;49.930;8.606;2023-04-07T05:15:18;29.50;;;19.00;;
4808;SDS011;2418;49.930;8.606;2023-04-07T05:17:44;32.17;;;21.00;;
4808;SDS011;2418;49.930;8.606;2023-04-07T05:20:14;33.70;;;20.95;;
4808;SDS011;2418;49.930;8.606;2023-04-07T05:22:41;29.48;;;19.38;;
4808;SDS011;2418;49.930;8.606;2023-04-07T05:25:07;27.53;;;19.33;;
4808;SDS011;2418;49.930;8.606;2023-04-07T05:27:33;28.40;;;18.38;;
4808;SDS011;2418;49.930;8.606;2023-04-07T05:29:59;30.00;;;19.80;;
4808;SDS011;2418;49.930;8.606;2023-04-07T05:32:26;27.52;;;19.10;;
4808;SDS011;2418;49.930;8.606;2023-04-07T05:34:53;29.92;;;18.55;;
4808;SDS011;2418;49.930;8.606;2023-04-07T05:37:19;32.80;;;19.10;;
4808;SDS011;2418;49.930;8.606;2023-04-07T05:39:45;33.42;;;20.15;;
4808;SDS011;2418;49.930;8.606;2023-04-07T05:42:11;28.85;;;19.60;;
4808;SDS011;2418;49.930;8.606;2023-04-07T05:44:37;25.38;;;18.90;;
4808;SDS011;2418;49.930;8.606;2023-04-07T05:47:04;27.07;;;19.10;;
4808;SDS011;2418;49.930;8.606;2023-04-07T05:49:33;30.25;;;18.95;;
4808;SDS011;2418;49.930;8.606;2023-04-07T05:51:59;26.15;;;18.10;;
4808;SDS011;2418;49.930;8.606;2023-04-07T05:54:27;30.05;;;20.05;;
4808;SDS011;2418;49.930;8.606;2023-04-07T05:56:54;26.40;;;18.10;;
4808;SDS011;2418;49.930;8.606;2023-04-07T05:59:20;31.00;;;18.47;;
4808;SDS011;2418;49.930;8.606;2023-04-07T06:01:46;28.65;;;18.05;;
4808;SDS011;2418;49.930;8.606;2023-04-07T06:04:12;28.95;;;18.52;;
4808;SDS011;2418;49.930;8.606;2023-04-07T06:06:38;28.43;;;17.47;;
4808;SDS011;2418;49.930;8.606;2023-04-07T06:09:04;27.60;;;18.30;;
4808;SDS011;2418;49.930;8.606;2023-04-07T06:11:30;24.65;;;18.05;;
4808;SDS011;2418;49.930;8.606;2023-04-07T06:13:56;24.52;;;17.67;;
4808;SDS011;2418;49.930;8.606;2023-04-07T06:16:22;21.52;;;16.92;;
4808;SDS011;2418;49.930;8.606;2023-04-07T06:18:48;23.80;;;17.10;;
4808;SDS011;2418;49.930;8.606;2023-04-07T06:21:15;26.52;;;19.23;;
4808;SDS011;2418;49.930;8.606;2023-04-07T06:23:41;25.80;;;17.87;;
4808;SDS011;2418;49.930;8.606;2023-04-07T06:26:10;24.23;;;18.08;;
4808;SDS011;2418;49.930;8.606;2023-04-07T06:28:36;28.80;;;18.25;;
4808;SDS011;2418;49.930;8.606;2023-04-07T06:31:02;27.75;;;19.00;;
4808;SDS011;2418;49.930;8.606;2023-04-07T06:33:29;30.10;;;17.47;;
4808;SDS011;2418;49.930;8.606;2023-04-07T06:35:55;32.75;;;18.63;;
4808;SDS011;2418;49.930;8.606;2023-04-07T06:38:21;26.83;;;18.83;;
4808;SDS011;2418;49.930;8.606;2023-04-07T06:40:48;27.00;;;18.47;;
4808;SDS011;2418;49.930;8.606;2023-04-07T06:43:14;25.42;;;17.67;;
4808;SDS011;2418;49.930;8.606;2023-04-07T06:45:39;24.00;;;17.42;;
4808;SDS011;2418;49.930;8.606;2023-04-07T06:48:05;28.35;;;18.00;;
4808;SDS011;2418;49.930;8.606;2023-04-07T06:50:31;23.77;;;17.73;;
4808;SDS011;2418;49.930;8.606;2023-04-07T06:52:57;26.02;;;17.33;;
4808;SDS011;2418;49.930;8.606;2023-04-07T06:55:24;23.35;;;16.88;;
4808;SDS011;2418;49.930;8.606;2023-04-07T06:57:51;25.13;;;17.63;;
4808;SDS011;2418;49.930;8.606;2023-04-07T07:00:17;21.02;;;16.65;;
4808;SDS011;2418;49.930;8.606;2023-04-07T07:02:43;23.38;;;17.40;;
4808;SDS011;2418;49.930;8.606;2023-04-07T07:05:09;18.38;;;16.33;;
4808;SDS011;2418;49.930;8.606;2023-04-07T07:07:36;21.90;;;15.88;;
4808;SDS011;2418;49.930;8.606;2023-04-07T07:10:02;21.05;;;16.90;;
4808;SDS011;2418;49.930;8.606;2023-04-07T07:12:28;18.98;;;15.60;;
4808;SDS011;2418;49.930;8.606;2023-04-07T07:14:54;20.40;;;15.98;;
4808;SDS011;2418;49.930;8.606;2023-04-07T07:17:20;23.90;;;17.33;;
4808;SDS011;2418;49.930;8.606;2023-04-07T07:19:46;21.80;;;15.90;;
4808;SDS011;2418;49.930;8.606;2023-04-07T07:22:12;21.67;;;15.70;;
4808;SDS011;2418;49.930;8.606;2023-04-07T07:24:38;18.05;;;15.27;;
4808;SDS011;2418;49.930;8.606;2023-04-07T07:27:04;21.20;;;15.60;;
4808;SDS011;2418;49.930;8.606;2023-04-07T07:29:30;18.30;;;15.43;;
4808;SDS011;2418;49.930;8.606;2023-04-07T07:31:56;19.60;;;15.80;;
4808;SDS011;2418;49.930;8.606;2023-04-07T07:34:22;19.88;;;15.55;;
4808;SDS011;2418;49.930;8.606;2023-04-07T07:36:49;18.87;;;15.13;;
4808;SDS011;2418;49.930;8.606;2023-04-07T07:39:15;19.17;;;15.18;;
4808;SDS011;2418;49.930;8.606;2023-04-07T07:41:41;19.80;;;15.32;;
4808;SDS011;2418;49.930;8.606;2023-04-07T07:44:07;20.45;;;15.00;;
4808;SDS011;2418;49.930;8.606;2023-04-07T07:46:33;18.60;;;14.75;;
4808;SDS011;2418;49.930;8.606;2023-04-07T07:49:01;19.07;;;15.30;;
4808;SDS011;2418;49.930;8.606;2023-04-07T07:51:29;21.55;;;15.60;;
4808;SDS011;2418;49.930;8.606;2023-04-07T07:53:55;17.90;;;14.73;;
4808;SDS011;2418;49.930;8.606;2023-04-07T07:56:21;19.35;;;14.80;;
4808;SDS011;2418;49.930;8.606;2023-04-07T07:58:47;22.23;;;14.98;;
4808;SDS011;2418;49.930;8.606;2023-04-07T08:01:13;17.92;;;14.50;;
4808;SDS011;2418;49.930;8.606;2023-04-07T08:03:40;16.95;;;14.73;;
4808;SDS011;2418;49.930;8.606;2023-04-07T08:06:06;19.83;;;14.13;;
4808;SDS011;2418;49.930;8.606;2023-04-07T08:08:33;17.40;;;13.97;;
4808;SDS011;2418;49.930;8.606;2023-04-07T08:11:10;18.88;;;14.52;;
4808;SDS011;2418;49.930;8.606;2023-04-07T08:13:37;20.42;;;14.32;;
4808;SDS011;2418;49.930;8.606;2023-04-07T08:16:03;15.83;;;13.00;;
4808;SDS011;2418;49.930;8.606;2023-04-07T08:18:31;15.82;;;12.95;;
4808;SDS011;2418;49.930;8.606;2023-04-07T08:20:58;17.42;;;14.35;;
4808;SDS011;2418;49.930;8.606;2023-04-07T08:23:24;19.42;;;13.70;;
4808;SDS011;2418;49.930;8.606;2023-04-07T08:25:51;13.60;;;12.20;;
4808;SDS011;2418;49.930;8.606;2023-04-07T08:28:17;15.93;;;13.03;;
4808;SDS011;2418;49.930;8.606;2023-04-07T08:30:43;15.55;;;13.68;;
4808;SDS011;2418;49.930;8.606;2023-04-07T08:33:09;16.60;;;12.50;;
4808;SDS011;2418;49.930;8.606;2023-04-07T08:35:35;19.25;;;13.70;;
4808;SDS011;2418;49.930;8.606;2023-04-07T08:38:01;13.70;;;12.30;;
4808;SDS011;2418;49.930;8.606;2023-04-07T08:40:27;14.82;;;13.00;;
4808;SDS011;2418;49.930;8.606;2023-04-07T08:42:53;14.35;;;12.20;;
4808;SDS011;2418;49.930;8.606;2023-04-07T08:45:20;14.48;;;11.85;;
4808;SDS011;2418;49.930;8.606;2023-04-07T08:47:46;13.53;;;12.10;;
4808;SDS011;2418;49.930;8.606;2023-04-07T08:50:16;14.80;;;12.80;;
4808;SDS011;2418;49.930;8.606;2023-04-07T08:52:44;14.75;;;12.27;;
4808;SDS011;2418;49.930;8.606;2023-04-07T08:55:10;16.75;;;13.32;;
4808;SDS011;2418;49.930;8.606;2023-04-07T08:57:37;15.05;;;12.07;;
4808;SDS011;2418;49.930;8.606;2023-04-07T09:00:04;17.00;;;12.27;;
4808;SDS011;2418;49.930;8.606;2023-04-07T09:02:35;17.30;;;13.15;;
4808;SDS011;2418;49.930;8.606;2023-04-07T09:05:02;14.38;;;12.88;;
4808;SDS011;2418;49.930;8.606;2023-04-07T09:07:33;14.45;;;12.25;;
4808;SDS011;2418;49.930;8.606;2023-04-07T09:09:59;16.27;;;13.07;;
4808;SDS011;2418;49.930;8.606;2023-04-07T09:12:28;16.55;;;11.95;;
4808;SDS011;2418;49.930;8.606;2023-04-07T09:14:55;14.80;;;13.25;;
4808;SDS011;2418;49.930;8.606;2023-04-07T09:17:21;17.60;;;13.00;;
4808;SDS011;2418;49.930;8.606;2023-04-07T09:19:47;15.17;;;13.20;;
4808;SDS011;2418;49.930;8.606;2023-04-07T09:22:13;14.85;;;12.20;;
4808;SDS011;2418;49.930;8.606;2023-04-07T09:24:40;13.90;;;12.40;;
4808;SDS011;2418;49.930;8.606;2023-04-07T09:29:39;15.13;;;13.53;;
4808;SDS011;2418;49.930;8.606;2023-04-07T09:32:06;15.30;;;12.30;;
4808;SDS011;2418;49.930;8.606;2023-04-07T09:34:34;15.13;;;12.63;;
4808;SDS011;2418;49.930;8.606;2023-04-07T09:37:01;13.13;;;11.80;;
4808;SDS011;2418;49.930;8.606;2023-04-07T09:39:27;14.50;;;13.10;;
4808;SDS011;2418;49.930;8.606;2023-04-07T09:41:54;15.30;;;13.13;;
4808;SDS011;2418;49.930;8.606;2023-04-07T09:44:20;15.23;;;13.10;;
4808;SDS011;2418;49.930;8.606;2023-04-07T09:46:50;20.83;;;13.25;;
4808;SDS011;2418;49.930;8.606;2023-04-07T09:49:17;15.30;;;13.77;;
4808;SDS011;2418;49.930;8.606;2023-04-07T09:54:41;15.38;;;12.95;;
4808;SDS011;2418;49.930;8.606;2023-04-07T09:57:07;14.50;;;13.00;;
4808;SDS011;2418;49.930;8.606;2023-04-07T09:59:34;16.08;;;14.45;;
4808;SDS011;2418;49.930;8.606;2023-04-07T10:02:01;18.60;;;12.20;;
4808;SDS011;2418;49.930;8.606;2023-04-07T10:04:27;15.93;;;12.85;;
4808;SDS011;2418;49.930;8.606;2023-04-07T10:06:53;15.02;;;13.32;;
4808;SDS011;2418;49.930;8.606;2023-04-07T10:09:25;16.10;;;13.73;;
4808;SDS011;2418;49.930;8.606;2023-04-07T10:11:53;17.58;;;12.57;;
4808;SDS011;2418;49.930;8.606;2023-04-07T10:14:21;14.18;;;12.68;;
4808;SDS011;2418;49.930;8.606;2023-04-07T10:16:47;14.60;;;12.50;;
4808;SDS011;2418;49.930;8.606;2023-04-07T10:19:15;14.13;;;12.63;;
4808;SDS011;2418;49.930;8.606;2023-04-07T10:21:42;12.65;;;11.38;;
4808;SDS011;2418;49.930;8.606;2023-04-07T10:24:14;12.57;;;11.47;;
4808;SDS011;2418;49.930;8.606;2023-04-07T10:26:45;14.30;;;12.80;;
4808;SDS011;2418;49.930;8.606;2023-04-07T10:29:12;12.23;;;11.13;;
4808;SDS011;2418;49.930;8.606;2023-04-07T10:31:41;13.43;;;12.13;;
4808;SDS011;2418;49.930;8.606;2023-04-07T10:34:07;14.23;;;12.88;;
4808;SDS011;2418;49.930;8.606;2023-04-07T10:36:33;16.42;;;13.43;;
4808;SDS011;2418;49.930;8.606;2023-04-07T10:41:40;13.63;;;12.23;;
4808;SDS011;2418;49.930;8.606;2023-04-07T10:44:07;13.75;;;12.38;;
4808;SDS011;2418;49.930;8.606;2023-04-07T10:47:01;10.48;;;9.68;;
4808;SDS011;2418;49.930;8.606;2023-04-07T10:49:28;11.02;;;10.23;;
4808;SDS011;2418;49.930;8.606;2023-04-07T10:54:37;11.50;;;10.60;;
4808;SDS011;2418;49.930;8.606;2023-04-07T10:57:10;15.70;;;14.00;;
4808;SDS011;2418;49.930;8.606;2023-04-07T10:59:40;14.27;;;12.98;;
4808;SDS011;2418;49.930;8.606;2023-04-07T11:04:37;14.05;;;12.65;;
4808;SDS011;2418;49.930;8.606;2023-04-07T11:07:03;23.20;;;20.95;;
4808;SDS011;2418;49.930;8.606;2023-04-07T11:09:29;15.00;;;13.40;;
4808;SDS011;2418;49.930;8.606;2023-04-07T11:11:55;13.90;;;12.50;;
4808;SDS011;2418;49.930;8.606;2023-04-07T11:14:28;14.35;;;13.15;;
4808;SDS011;2418;49.930;8.606;2023-04-07T11:16:54;13.30;;;12.00;;
4808;SDS011;2418;49.930;8.606;2023-04-07T11:19:20;11.65;;;10.65;;
4808;SDS011;2418;49.930;8.606;2023-04-07T11:21:47;13.00;;;11.80;;
4808;SDS011;2418;49.930;8.606;2023-04-07T11:24:32;13.23;;;11.90;;
4808;SDS011;2418;49.930;8.606;2023-04-07T11:26:58;12.65;;;11.55;;
4808;SDS011;2418;49.930;8.606;2023-04-07T11:29:28;15.57;;;14.15;;
4808;SDS011;2418;49.930;8.606;2023-04-07T11:31:56;13.10;;;11.80;;
4808;SDS011;2418;49.930;8.606;2023-04-07T11:34:28;11.85;;;10.75;;
4808;SDS011;2418;49.930;8.606;2023-04-07T11:36:54;12.80;;;11.60;;
4808;SDS011;2418;49.930;8.606;2023-04-07T11:39:23;12.05;;;11.10;;
4808;SDS011;2418;49.930;8.606;2023-04-07T11:41:52;12.20;;;11.07;;
4808;SDS011;2418;49.930;8.606;2023-04-07T11:44:18;12.40;;;11.10;;
4808;SDS011;2418;49.930;8.606;2023-04-07T11:46:51;11.15;;;10.05;;
4808;SDS011;2418;49.930;8.606;2023-04-07T11:49:18;11.80;;;10.80;;
4808;SDS011;2418;49.930;8.606;2023-04-07T11:51:45;11.35;;;10.23;;
4808;SDS011;2418;49.930;8.606;2023-04-07T11:54:11;11.82;;;10.82;;
4808;SDS011;2418;49.930;8.606;2023-04-07T11:56:41;12.95;;;11.57;;
4808;SDS011;2418;49.930;8.606;2023-04-07T11:59:08;12.18;;;11.07;;
4808;SDS011;2418;49.930;8.606;2023-04-07T12:01:42;16.35;;;11.70;;
4808;SDS011;2418;49.930;8.606;2023-04-07T12:04:11;13.85;;;12.50;;
4808;SDS011;2418;49.930;8.606;2023-04-07T12:06:38;11.65;;;10.55;;
4808;SDS011;2418;49.930;8.606;2023-04-07T12:09:07;10.80;;;9.75;;
4808;SDS011;2418;49.930;8.606;2023-04-07T12:11:33;10.30;;;9.50;;
4808;SDS011;2418;49.930;8.606;2023-04-07T12:14:00;10.80;;;10.00;;
4808;SDS011;2418;49.930;8.606;2023-04-07T12:16:29;10.10;;;9.30;;
4808;SDS011;2418;49.930;8.606;2023-04-07T12:18:55;11.60;;;10.50;;
4808;SDS011;2418;49.930;8.606;2023-04-07T12:21:21;10.45;;;9.35;;
4808;SDS011;2418;49.930;8.606;2023-04-07T12:23:50;11.70;;;10.30;;
4808;SDS011;2418;49.930;8.606;2023-04-07T12:26:16;10.73;;;9.63;;
4808;SDS011;2418;49.930;8.606;2023-04-07T12:28:42;9.73;;;8.93;;
4808;SDS011;2418;49.930;8.606;2023-04-07T12:31:09;9.80;;;9.00;;
4808;SDS011;2418;49.930;8.606;2023-04-07T12:33:35;12.02;;;10.90;;
4808;SDS011;2418;49.930;8.606;2023-04-07T12:36:00;9.60;;;8.70;;
4808;SDS011;2418;49.930;8.606;2023-04-07T12:38:26;10.02;;;9.20;;
4808;SDS011;2418;49.930;8.606;2023-04-07T12:40:52;9.18;;;8.43;;
4808;SDS011;2418;49.930;8.606;2023-04-07T12:43:18;10.75;;;9.75;;
4808;SDS011;2418;49.930;8.606;2023-04-07T12:45:45;9.40;;;8.40;;
4808;SDS011;2418;49.930;8.606;2023-04-07T12:48:11;8.98;;;8.38;;
4808;SDS011;2418;49.930;8.606;2023-04-07T12:50:37;9.20;;;8.55;;
4808;SDS011;2418;49.930;8.606;2023-04-07T12:53:04;10.35;;;9.45;;
4808;SDS011;2418;49.930;8.606;2023-04-07T12:55:30;9.70;;;8.80;;
4808;SDS011;2418;49.930;8.606;2023-04-07T12:57:57;10.13;;;9.43;;
4808;SDS011;2418;49.930;8.606;2023-04-07T13:00:23;9.43;;;8.63;;
4808;SDS011;2418;49.930;8.606;2023-04-07T13:02:49;10.88;;;9.88;;
4808;SDS011;2418;49.930;8.606;2023-04-07T13:05:15;8.45;;;7.75;;
4808;SDS011;2418;49.930;8.606;2023-04-07T13:07:42;10.55;;;9.65;;
4808;SDS011;2418;49.930;8.606;2023-04-07T13:10:09;11.50;;;10.50;;
4808;SDS011;2418;49.930;8.606;2023-04-07T13:12:36;10.70;;;9.80;;
4808;SDS011;2418;49.930;8.606;2023-04-07T13:15:03;12.00;;;10.90;;
4808;SDS011;2418;49.930;8.606;2023-04-07T13:17:30;12.02;;;10.93;;
4808;SDS011;2418;49.930;8.606;2023-04-07T13:19:56;12.15;;;11.13;;
4808;SDS011;2418;49.930;8.606;2023-04-07T13:22:22;12.05;;;11.05;;
4808;SDS011;2418;49.930;8.606;2023-04-07T13:24:51;11.07;;;10.25;;
4808;SDS011;2418;49.930;8.606;2023-04-07T13:27:17;11.30;;;10.40;;
4808;SDS011;2418;49.930;8.606;2023-04-07T13:29:43;9.93;;;9.23;;
4808;SDS011;2418;49.930;8.606;2023-04-07T13:32:09;10.02;;;9.23;;
4808;SDS011;2418;49.930;8.606;2023-04-07T13:34:39;10.30;;;9.50;;
4808;SDS011;2418;49.930;8.606;2023-04-07T13:37:06;9.50;;;8.90;;
4808;SDS011;2418;49.930;8.606;2023-04-07T13:39:32;8.52;;;7.93;;
4808;SDS011;2418;49.930;8.606;2023-04-07T13:41:58;7.40;;;6.95;;
4808;SDS011;2418;49.930;8.606;2023-04-07T13:44:25;7.40;;;6.90;;
4808;SDS011;2418;49.930;8.606;2023-04-07T13:46:51;7.07;;;6.68;;
4808;SDS011;2418;49.930;8.606;2023-04-07T13:49:17;7.23;;;6.83;;
4808;SDS011;2418;49.930;8.606;2023-04-07T13:51:43;7.40;;;7.00;;
4808;SDS011;2418;49.930;8.606;2023-04-07T13:54:09;7.70;;;7.20;;
4808;SDS011;2418;49.930;8.606;2023-04-07T13:56:35;8.80;;;8.10;;
4808;SDS011;2418;49.930;8.606;2023-04-07T13:59:05;7.70;;;7.20;;
4808;SDS011;2418;49.930;8.606;2023-04-07T14:01:31;7.40;;;7.00;;
4808;SDS011;2418;49.930;8.606;2023-04-07T14:04:00;7.50;;;7.10;;
4808;SDS011;2418;49.930;8.606;2023-04-07T14:06:27;6.28;;;6.07;;
4808;SDS011;2418;49.930;8.606;2023-04-07T14:08:53;6.20;;;6.00;;
4808;SDS011;2418;49.930;8.606;2023-04-07T14:11:19;6.40;;;6.00;;
4808;SDS011;2418;49.930;8.606;2023-04-07T14:13:48;5.43;;;5.22;;
4808;SDS011;2418;49.930;8.606;2023-04-07T14:16:15;5.65;;;5.45;;
4808;SDS011;2418;49.930;8.606;2023-04-07T14:18:42;6.50;;;6.20;;
4808;SDS011;2418;49.930;8.606;2023-04-07T14:21:08;5.95;;;5.75;;
4808;SDS011;2418;49.930;8.606;2023-04-07T14:23:34;6.20;;;5.72;;
4808;SDS011;2418;49.930;8.606;2023-04-07T14:26:00;6.72;;;6.32;;
4808;SDS011;2418;49.930;8.606;2023-04-07T14:28:26;5.55;;;5.25;;
4808;SDS011;2418;49.930;8.606;2023-04-07T14:30:53;6.10;;;5.70;;
4808;SDS011;2418;49.930;8.606;2023-04-07T14:33:19;5.90;;;5.70;;
4808;SDS011;2418;49.930;8.606;2023-04-07T14:35:45;5.87;;;5.67;;
4808;SDS011;2418;49.930;8.606;2023-04-07T14:38:11;6.35;;;6.05;;
4808;SDS011;2418;49.930;8.606;2023-04-07T14:40:37;5.60;;;5.30;;
4808;SDS011;2418;49.930;8.606;2023-04-07T14:43:03;5.97;;;5.68;;
4808;SDS011;2418;49.930;8.606;2023-04-07T14:45:31;5.35;;;5.15;;
4808;SDS011;2418;49.930;8.606;2023-04-07T14:47:57;4.75;;;4.45;;
4808;SDS011;2418;49.930;8.606;2023-04-07T14:50:23;5.18;;;4.97;;
4808;SDS011;2418;49.930;8.606;2023-04-07T14:52:49;4.85;;;4.65;;
4808;SDS011;2418;49.930;8.606;2023-04-07T14:55:15;5.00;;;4.60;;
4808;SDS011;2418;49.930;8.606;2023-04-07T14:57:42;4.75;;;4.65;;
4808;SDS011;2418;49.930;8.606;2023-04-07T15:00:08;4.53;;;4.43;;
4808;SDS011;2418;49.930;8.606;2023-04-07T15:02:34;4.20;;;4.10;;
4808;SDS011;2418;49.930;8.606;2023-04-07T15:05:00;3.90;;;3.80;;
4808;SDS011;2418;49.930;8.606;2023-04-07T15:07:27;4.27;;;4.07;;
4808;SDS011;2418;49.930;8.606;2023-04-07T15:09:53;3.30;;;3.20;;
4808;SDS011;2418;49.930;8.606;2023-04-07T15:12:19;3.15;;;3.05;;